»·PEaware :: N733XE KLAX-KSAN

N733XE :: KLAX-KSAN

FLIGHT INFORMATION

Flight Status: Arrived
Operator: Privately registered:
United States
More flights under this callsign
Pilot: John A. (34961)
Aircraft: CESSNA 172 SKYHAWK
(C172)
More flights by this aircraft type
Origin: KLAX Los Angeles Intl
United States
Destination: KSAN San Diego Intl-Lindbergh
United States
More flights between these airports :: More routes between these airports
Route:
File this flight plan on PilotEdge
Remarks:
Altitude:
(Current/Filed)
7,500ft
Speed:
(Current/Filed)
115kts
Departed: 20-Sep-22 07:27 PM
Arrived: 20-Sep-22 08:17 PM
Distance/Time
Traveled:
95nm/0:50
Distance/Time
To Go:
Arrived

Flight Plot

Page will automatically refresh every two minutes.


Map Options




Map Legend


Flown Route
Filed Route
Departure Airport
Arrival Airport
Navaid (VOR, NDB)
Fix

Horizontal Profiles

Position Reports

Time Latitude Longitude Heading Altitude Ground
Speed
20-Sep-22 19:02 33.933760 -118.393836 92 103ft 0kts
20-Sep-22 19:03 33.933760 -118.393836 92 103ft 0kts
20-Sep-22 19:04 33.933760 -118.393836 92 103ft 0kts
20-Sep-22 19:05 33.933760 -118.393836 92 103ft 0kts
20-Sep-22 19:06 33.933760 -118.393836 92 103ft 0kts
20-Sep-22 19:07 33.933760 -118.393836 92 103ft 0kts
20-Sep-22 19:08 33.933760 -118.393836 92 103ft 0kts
20-Sep-22 19:09 33.933760 -118.393836 92 103ft 0kts
20-Sep-22 19:10 33.933760 -118.393834 92 103ft 0kts
20-Sep-22 19:11 33.933760 -118.393834 92 103ft 0kts
20-Sep-22 19:12 33.933760 -118.393834 92 103ft 0kts
20-Sep-22 19:13 33.933760 -118.393834 92 103ft 0kts
20-Sep-22 19:14 33.933760 -118.393834 92 103ft 0kts
20-Sep-22 19:15 33.933760 -118.393834 92 103ft 0kts
20-Sep-22 19:16 33.933760 -118.393834 92 103ft 0kts
20-Sep-22 19:17 33.933760 -118.393834 92 103ft 0kts
20-Sep-22 19:18 33.933760 -118.393834 92 103ft 0kts
20-Sep-22 19:19 33.933759 -118.393831 93 103ft 0kts
20-Sep-22 19:20 33.934828 -118.392627 54 102ft 12kts
20-Sep-22 19:21 33.935834 -118.385502 80 99ft 31kts
20-Sep-22 19:22 33.936302 -118.382895 28 96ft 0kts
20-Sep-22 19:23 33.936302 -118.382895 28 96ft 0kts
20-Sep-22 19:24 33.936302 -118.382896 28 96ft 0kts
20-Sep-22 19:25 33.936992 -118.382903 332 96ft 15kts
20-Sep-22 19:26 33.935978 -118.399167 263 590ft 65kts
20-Sep-22 19:27 33.922725 -118.412242 211 1415ft 77kts
20-Sep-22 19:28 33.898781 -118.420691 179 1762ft 101kts
20-Sep-22 19:29 33.872494 -118.409638 150 2364ft 106kts
20-Sep-22 19:30 33.850535 -118.384684 146 3030ft 110kts
20-Sep-22 19:31 33.829086 -118.356248 136 3563ft 127kts
20-Sep-22 19:32 33.807935 -118.320424 126 3902ft 133kts
20-Sep-22 19:33 33.788421 -118.281340 124 4142ft 137kts
20-Sep-22 19:34 33.765861 -118.244910 134 4422ft 134kts
20-Sep-22 19:35 33.741733 -118.212158 135 4790ft 130kts
20-Sep-22 19:36 33.719541 -118.176715 132 5068ft 134kts
20-Sep-22 19:37 33.698987 -118.139186 137 5344ft 133kts
20-Sep-22 19:38 33.677498 -118.104694 137 5746ft 129kts
20-Sep-22 19:39 33.656005 -118.070102 134 6070ft 130kts
20-Sep-22 19:40 33.635276 -118.035398 138 6413ft 127kts
20-Sep-22 19:41 33.610212 -118.003982 147 6477ft 132kts
20-Sep-22 19:42 33.584376 -117.972213 141 6556ft 134kts
20-Sep-22 19:43 33.559659 -117.938482 137 6459ft 140kts
20-Sep-22 19:44 33.533949 -117.907952 142 6702ft 120kts
20-Sep-22 19:45 33.512546 -117.879852 142 7198ft 109kts
20-Sep-22 19:46 33.491712 -117.852081 142 7447ft 121kts
20-Sep-22 19:47 33.468168 -117.820917 139 7445ft 129kts
20-Sep-22 19:48 33.444860 -117.787804 139 7443ft 131kts
20-Sep-22 19:49 33.421364 -117.754156 139 7441ft 132kts
20-Sep-22 19:50 33.397186 -117.719240 139 7440ft 134kts
20-Sep-22 19:51 33.373323 -117.684772 141 7438ft 135kts
20-Sep-22 19:52 33.347694 -117.650281 141 7208ft 145kts
20-Sep-22 19:53 33.320112 -117.614123 141 6816ft 148kts
20-Sep-22 19:54 33.291955 -117.577706 141 6424ft 149kts
20-Sep-22 19:55 33.265014 -117.542772 141 6336ft 138kts
20-Sep-22 19:56 33.239472 -117.509364 141 6338ft 135kts
20-Sep-22 19:57 33.214146 -117.476400 141 6340ft 134kts
20-Sep-22 19:58 33.187903 -117.445809 155 6343ft 128kts
20-Sep-22 19:59 33.156179 -117.422462 156 6020ft 139kts
20-Sep-22 20:00 33.120168 -117.396781 156 5600ft 142kts
20-Sep-22 20:01 33.082758 -117.370733 156 5176ft 144kts
20-Sep-22 20:02 33.046136 -117.347694 159 4758ft 137kts
20-Sep-22 20:03 33.011636 -117.326895 159 4452ft 129kts
20-Sep-22 20:04 32.980878 -117.307997 159 4273ft 125kts
20-Sep-22 20:05 32.950052 -117.289293 159 3970ft 122kts
20-Sep-22 20:06 32.921262 -117.273111 163 3955ft 109kts
20-Sep-22 20:07 32.894319 -117.258590 163 3954ft 100kts
20-Sep-22 20:08 32.870219 -117.245272 165 3814ft 97kts
20-Sep-22 20:09 32.843214 -117.231424 166 3146ft 114kts
20-Sep-22 20:10 32.812083 -117.219194 170 2319ft 123kts
20-Sep-22 20:11 32.777590 -117.209646 168 1136ft 125kts
20-Sep-22 20:12 32.755828 -117.188870 110 1072ft 98kts
20-Sep-22 20:13 32.746250 -117.160579 108 1148ft 87kts
20-Sep-22 20:14 32.728283 -117.156871 265 765ft 77kts
20-Sep-22 20:15 32.730599 -117.177650 291 51ft 55kts
20-Sep-22 20:16 32.733440 -117.188081 331 21ft 13kts
20-Sep-22 20:17 32.734115 -117.187959 61 21ft 0kts
20-Sep-22 20:18 32.733346 -117.184178 102 21ft 24kts
20-Sep-22 20:19 32.733154 -117.178850 47 21ft 3kts

Navigation Log

Ident Type
Flight plan parsing failed, navigation log unavailable